sensor_id;sensor_type;location;lat;lon;timestamp;P1;durP1;ratioP1;P2;durP2;ratioP2
39454;SDS011;25155;41.890;23.446;2023-04-25T00:01:41;1.63;;;1.45;;
39454;SDS011;25155;41.890;23.446;2023-04-25T00:04:09;1.90;;;1.63;;
39454;SDS011;25155;41.890;23.446;2023-04-25T00:06:37;2.50;;;1.70;;
39454;SDS011;25155;41.890;23.446;2023-04-25T00:09:05;3.92;;;1.90;;
39454;SDS011;25155;41.890;23.446;2023-04-25T00:11:35;2.42;;;1.70;;
39454;SDS011;25155;41.890;23.446;2023-04-25T00:14:03;1.65;;;1.40;;
39454;SDS011;25155;41.890;23.446;2023-04-25T00:16:32;1.50;;;1.40;;
39454;SDS011;25155;41.890;23.446;2023-04-25T00:19:01;1.50;;;1.40;;
39454;SDS011;25155;41.890;23.446;2023-04-25T00:21:29;1.80;;;1.40;;
39454;SDS011;25155;41.890;23.446;2023-04-25T00:23:58;2.50;;;1.80;;
39454;SDS011;25155;41.890;23.446;2023-04-25T00:26:26;3.03;;;1.90;;
39454;SDS011;25155;41.890;23.446;2023-04-25T00:28:53;3.08;;;2.10;;
39454;SDS011;25155;41.890;23.446;2023-04-25T00:31:21;2.33;;;1.75;;
39454;SDS011;25155;41.890;23.446;2023-04-25T00:33:48;3.22;;;2.00;;
39454;SDS011;25155;41.890;23.446;2023-04-25T00:36:17;3.05;;;1.85;;
39454;SDS011;25155;41.890;23.446;2023-04-25T00:38:45;2.60;;;1.80;;
39454;SDS011;25155;41.890;23.446;2023-04-25T00:41:12;3.05;;;2.05;;
39454;SDS011;25155;41.890;23.446;2023-04-25T00:43:39;2.30;;;1.70;;
39454;SDS011;25155;41.890;23.446;2023-04-25T00:46:07;2.22;;;1.60;;
39454;SDS011;25155;41.890;23.446;2023-04-25T00:48:34;2.40;;;1.70;;
39454;SDS011;25155;41.890;23.446;2023-04-25T00:51:01;2.97;;;1.90;;
39454;SDS011;25155;41.890;23.446;2023-04-25T00:53:30;2.40;;;1.70;;
39454;SDS011;25155;41.890;23.446;2023-04-25T00:55:58;2.22;;;1.60;;
39454;SDS011;25155;41.890;23.446;2023-04-25T00:58:26;2.20;;;1.70;;
39454;SDS011;25155;41.890;23.446;2023-04-25T01:00:53;2.22;;;1.70;;
39454;SDS011;25155;41.890;23.446;2023-04-25T01:03:21;2.97;;;1.60;;
39454;SDS011;25155;41.890;23.446;2023-04-25T01:05:49;1.80;;;1.55;;
39454;SDS011;25155;41.890;23.446;2023-04-25T01:08:17;2.63;;;1.83;;
39454;SDS011;25155;41.890;23.446;2023-04-25T01:10:46;2.05;;;1.70;;
39454;SDS011;25155;41.890;23.446;2023-04-25T01:13:13;1.80;;;1.60;;
39454;SDS011;25155;41.890;23.446;2023-04-25T01:15:40;2.05;;;1.60;;
39454;SDS011;25155;41.890;23.446;2023-04-25T01:18:07;3.00;;;1.95;;
39454;SDS011;25155;41.890;23.446;2023-04-25T01:20:34;2.90;;;1.80;;
39454;SDS011;25155;41.890;23.446;2023-04-25T01:23:05;1.83;;;1.50;;
39454;SDS011;25155;41.890;23.446;2023-04-25T01:25:32;1.70;;;1.55;;
39454;SDS011;25155;41.890;23.446;2023-04-25T01:28:00;1.73;;;1.50;;
39454;SDS011;25155;41.890;23.446;2023-04-25T01:30:27;2.13;;;1.60;;
39454;SDS011;25155;41.890;23.446;2023-04-25T01:32:55;2.00;;;1.60;;
39454;SDS011;25155;41.890;23.446;2023-04-25T01:35:23;2.25;;;1.73;;
39454;SDS011;25155;41.890;23.446;2023-04-25T01:37:50;1.92;;;1.60;;
39454;SDS011;25155;41.890;23.446;2023-04-25T01:40:19;1.60;;;1.50;;
39454;SDS011;25155;41.890;23.446;2023-04-25T01:42:47;1.20;;;1.10;;
39454;SDS011;25155;41.890;23.446;2023-04-25T01:45:15;1.25;;;1.15;;
39454;SDS011;25155;41.890;23.446;2023-04-25T01:47:42;2.33;;;1.60;;
39454;SDS011;25155;41.890;23.446;2023-04-25T01:50:14;1.70;;;1.40;;
39454;SDS011;25155;41.890;23.446;2023-04-25T01:52:42;2.40;;;1.60;;
39454;SDS011;25155;41.890;23.446;2023-04-25T01:55:09;1.98;;;1.60;;
39454;SDS011;25155;41.890;23.446;2023-04-25T01:57:38;1.95;;;1.27;;
39454;SDS011;25155;41.890;23.446;2023-04-25T02:00:05;2.50;;;1.70;;
39454;SDS011;25155;41.890;23.446;2023-04-25T02:02:34;2.83;;;1.60;;
39454;SDS011;25155;41.890;23.446;2023-04-25T02:05:01;1.42;;;1.20;;
39454;SDS011;25155;41.890;23.446;2023-04-25T02:07:28;1.50;;;1.40;;
39454;SDS011;25155;41.890;23.446;2023-04-25T02:09:55;1.13;;;1.10;;
39454;SDS011;25155;41.890;23.446;2023-04-25T02:12:22;1.45;;;1.30;;
39454;SDS011;25155;41.890;23.446;2023-04-25T02:14:52;1.38;;;1.27;;
39454;SDS011;25155;41.890;23.446;2023-04-25T02:17:20;2.13;;;1.15;;
39454;SDS011;25155;41.890;23.446;2023-04-25T02:19:47;2.35;;;1.40;;
39454;SDS011;25155;41.890;23.446;2023-04-25T02:22:15;1.77;;;1.50;;
39454;SDS011;25155;41.890;23.446;2023-04-25T02:24:42;1.58;;;1.40;;
39454;SDS011;25155;41.890;23.446;2023-04-25T02:27:09;2.05;;;1.40;;
39454;SDS011;25155;41.890;23.446;2023-04-25T02:29:36;1.52;;;1.40;;
39454;SDS011;25155;41.890;23.446;2023-04-25T02:32:05;2.17;;;1.50;;
39454;SDS011;25155;41.890;23.446;2023-04-25T02:34:32;1.52;;;1.42;;
39454;SDS011;25155;41.890;23.446;2023-04-25T02:36:59;1.67;;;1.50;;
39454;SDS011;25155;41.890;23.446;2023-04-25T02:39:26;1.38;;;1.30;;
39454;SDS011;25155;41.890;23.446;2023-04-25T02:41:54;2.08;;;1.45;;
39454;SDS011;25155;41.890;23.446;2023-04-25T02:44:21;1.50;;;1.40;;
39454;SDS011;25155;41.890;23.446;2023-04-25T02:46:48;1.50;;;1.40;;
39454;SDS011;25155;41.890;23.446;2023-04-25T02:49:16;1.77;;;1.50;;
39454;SDS011;25155;41.890;23.446;2023-04-25T02:51:43;2.22;;;1.50;;
39454;SDS011;25155;41.890;23.446;2023-04-25T02:54:10;1.50;;;1.35;;
39454;SDS011;25155;41.890;23.446;2023-04-25T02:56:37;1.70;;;1.33;;
39454;SDS011;25155;41.890;23.446;2023-04-25T02:59:04;1.65;;;1.42;;
39454;SDS011;25155;41.890;23.446;2023-04-25T03:01:32;1.38;;;1.27;;
39454;SDS011;25155;41.890;23.446;2023-04-25T03:03:59;1.73;;;1.60;;
39454;SDS011;25155;41.890;23.446;2023-04-25T03:06:27;1.65;;;1.50;;
39454;SDS011;25155;41.890;23.446;2023-04-25T03:08:54;1.52;;;1.42;;
39454;SDS011;25155;41.890;23.446;2023-04-25T03:11:21;2.55;;;1.50;;
39454;SDS011;25155;41.890;23.446;2023-04-25T03:13:48;1.10;;;1.10;;
39454;SDS011;25155;41.890;23.446;2023-04-25T03:16:15;1.98;;;1.45;;
39454;SDS011;25155;41.890;23.446;2023-04-25T03:18:42;1.52;;;1.42;;
39454;SDS011;25155;41.890;23.446;2023-04-25T03:21:09;2.30;;;1.67;;
39454;SDS011;25155;41.890;23.446;2023-04-25T03:23:38;2.65;;;1.65;;
39454;SDS011;25155;41.890;23.446;2023-04-25T03:26:05;1.40;;;1.30;;
39454;SDS011;25155;41.890;23.446;2023-04-25T03:28:32;2.17;;;1.60;;
39454;SDS011;25155;41.890;23.446;2023-04-25T03:30:59;1.65;;;1.50;;
39454;SDS011;25155;41.890;23.446;2023-04-25T03:33:26;2.58;;;1.70;;
39454;SDS011;25155;41.890;23.446;2023-04-25T03:35:53;3.03;;;1.80;;
39454;SDS011;25155;41.890;23.446;2023-04-25T03:38:20;2.92;;;1.48;;
39454;SDS011;25155;41.890;23.446;2023-04-25T03:40:49;1.75;;;1.40;;
39454;SDS011;25155;41.890;23.446;2023-04-25T03:43:17;1.60;;;1.50;;
39454;SDS011;25155;41.890;23.446;2023-04-25T03:45:44;1.40;;;1.30;;
39454;SDS011;25155;41.890;23.446;2023-04-25T03:48:11;1.50;;;1.40;;
39454;SDS011;25155;41.890;23.446;2023-04-25T03:50:38;2.33;;;1.70;;
39454;SDS011;25155;41.890;23.446;2023-04-25T03:53:05;1.60;;;1.50;;
39454;SDS011;25155;41.890;23.446;2023-04-25T03:55:32;1.50;;;1.40;;
39454;SDS011;25155;41.890;23.446;2023-04-25T03:58:00;1.23;;;1.13;;
39454;SDS011;25155;41.890;23.446;2023-04-25T04:00:27;1.33;;;1.23;;
39454;SDS011;25155;41.890;23.446;2023-04-25T04:02:54;1.40;;;1.20;;
39454;SDS011;25155;41.890;23.446;2023-04-25T04:05:22;2.05;;;1.60;;
39454;SDS011;25155;41.890;23.446;2023-04-25T04:07:49;3.38;;;2.03;;
39454;SDS011;25155;41.890;23.446;2023-04-25T04:10:16;2.95;;;2.10;;
39454;SDS011;25155;41.890;23.446;2023-04-25T04:12:43;3.60;;;2.22;;
39454;SDS011;25155;41.890;23.446;2023-04-25T04:15:12;4.57;;;2.80;;
39454;SDS011;25155;41.890;23.446;2023-04-25T04:17:39;4.57;;;2.97;;
39454;SDS011;25155;41.890;23.446;2023-04-25T04:20:07;3.88;;;2.50;;
39454;SDS011;25155;41.890;23.446;2023-04-25T04:22:35;3.40;;;2.33;;
39454;SDS011;25155;41.890;23.446;2023-04-25T04:25:02;4.22;;;2.47;;
39454;SDS011;25155;41.890;23.446;2023-04-25T04:27:31;3.58;;;2.30;;
39454;SDS011;25155;41.890;23.446;2023-04-25T04:29:59;3.83;;;2.40;;
39454;SDS011;25155;41.890;23.446;2023-04-25T04:32:29;4.82;;;2.95;;
39454;SDS011;25155;41.890;23.446;2023-04-25T04:34:58;4.63;;;3.17;;
39454;SDS011;25155;41.890;23.446;2023-04-25T04:37:25;6.55;;;4.30;;
39454;SDS011;25155;41.890;23.446;2023-04-25T04:39:52;7.30;;;4.45;;
39454;SDS011;25155;41.890;23.446;2023-04-25T04:42:19;7.47;;;4.70;;
39454;SDS011;25155;41.890;23.446;2023-04-25T04:44:46;6.10;;;3.97;;
39454;SDS011;25155;41.890;23.446;2023-04-25T04:47:13;5.72;;;3.72;;
39454;SDS011;25155;41.890;23.446;2023-04-25T04:49:42;8.75;;;5.22;;
39454;SDS011;25155;41.890;23.446;2023-04-25T04:52:09;7.18;;;4.75;;
39454;SDS011;25155;41.890;23.446;2023-04-25T04:54:36;7.05;;;4.57;;
39454;SDS011;25155;41.890;23.446;2023-04-25T04:57:04;6.43;;;3.90;;
39454;SDS011;25155;41.890;23.446;2023-04-25T04:59:31;6.75;;;4.05;;
39454;SDS011;25155;41.890;23.446;2023-04-25T05:01:59;6.13;;;4.50;;
39454;SDS011;25155;41.890;23.446;2023-04-25T05:04:26;6.75;;;4.97;;
39454;SDS011;25155;41.890;23.446;2023-04-25T05:06:54;7.05;;;4.95;;
39454;SDS011;25155;41.890;23.446;2023-04-25T05:09:21;5.80;;;4.32;;
39454;SDS011;25155;41.890;23.446;2023-04-25T05:11:50;6.03;;;4.35;;
39454;SDS011;25155;41.890;23.446;2023-04-25T05:14:17;6.47;;;5.18;;
39454;SDS011;25155;41.890;23.446;2023-04-25T05:16:45;6.38;;;5.00;;
39454;SDS011;25155;41.890;23.446;2023-04-25T05:19:12;8.73;;;6.63;;
39454;SDS011;25155;41.890;23.446;2023-04-25T05:21:39;10.35;;;7.60;;
39454;SDS011;25155;41.890;23.446;2023-04-25T05:24:07;10.60;;;8.00;;
39454;SDS011;25155;41.890;23.446;2023-04-25T05:26:35;9.27;;;6.90;;
39454;SDS011;25155;41.890;23.446;2023-04-25T05:29:02;7.60;;;5.90;;
39454;SDS011;25155;41.890;23.446;2023-04-25T05:31:29;6.22;;;4.80;;
39454;SDS011;25155;41.890;23.446;2023-04-25T05:33:57;6.57;;;4.40;;
39454;SDS011;25155;41.890;23.446;2023-04-25T05:36:24;8.10;;;6.13;;
39454;SDS011;25155;41.890;23.446;2023-04-25T05:38:51;8.65;;;6.55;;
39454;SDS011;25155;41.890;23.446;2023-04-25T05:41:19;7.78;;;5.88;;
39454;SDS011;25155;41.890;23.446;2023-04-25T05:43:47;7.40;;;5.70;;
39454;SDS011;25155;41.890;23.446;2023-04-25T05:46:14;7.40;;;6.20;;
39454;SDS011;25155;41.890;23.446;2023-04-25T05:48:42;7.82;;;6.00;;
39454;SDS011;25155;41.890;23.446;2023-04-25T05:51:09;9.25;;;7.68;;
39454;SDS011;25155;41.890;23.446;2023-04-25T05:53:36;8.77;;;7.15;;
39454;SDS011;25155;41.890;23.446;2023-04-25T05:56:04;11.52;;;8.45;;
39454;SDS011;25155;41.890;23.446;2023-04-25T05:58:32;8.40;;;7.07;;
39454;SDS011;25155;41.890;23.446;2023-04-25T06:00:59;7.95;;;6.47;;
39454;SDS011;25155;41.890;23.446;2023-04-25T06:03:26;7.43;;;5.60;;
39454;SDS011;25155;41.890;23.446;2023-04-25T06:05:54;7.60;;;6.30;;
39454;SDS011;25155;41.890;23.446;2023-04-25T06:08:21;9.45;;;7.57;;
39454;SDS011;25155;41.890;23.446;2023-04-25T06:10:48;8.07;;;6.53;;
39454;SDS011;25155;41.890;23.446;2023-04-25T06:13:15;9.73;;;8.60;;
39454;SDS011;25155;41.890;23.446;2023-04-25T06:15:44;9.93;;;8.60;;
39454;SDS011;25155;41.890;23.446;2023-04-25T06:18:11;9.52;;;7.85;;
39454;SDS011;25155;41.890;23.446;2023-04-25T06:20:38;7.82;;;6.50;;
39454;SDS011;25155;41.890;23.446;2023-04-25T06:23:05;7.03;;;5.88;;
39454;SDS011;25155;41.890;23.446;2023-04-25T06:25:32;8.15;;;6.45;;
39454;SDS011;25155;41.890;23.446;2023-04-25T06:27:59;7.57;;;6.40;;
39454;SDS011;25155;41.890;23.446;2023-04-25T06:30:26;8.40;;;6.82;;
39454;SDS011;25155;41.890;23.446;2023-04-25T06:32:55;7.75;;;6.50;;
39454;SDS011;25155;41.890;23.446;2023-04-25T06:35:22;7.40;;;6.32;;
39454;SDS011;25155;41.890;23.446;2023-04-25T06:37:49;7.43;;;5.93;;
39454;SDS011;25155;41.890;23.446;2023-04-25T06:40:16;6.50;;;5.40;;
39454;SDS011;25155;41.890;23.446;2023-04-25T06:42:43;9.90;;;8.00;;
39454;SDS011;25155;41.890;23.446;2023-04-25T06:45:10;10.77;;;9.00;;
39454;SDS011;25155;41.890;23.446;2023-04-25T06:47:38;10.90;;;8.40;;
39454;SDS011;25155;41.890;23.446;2023-04-25T06:50:07;11.30;;;9.02;;
39454;SDS011;25155;41.890;23.446;2023-04-25T06:52:34;7.65;;;6.28;;
39454;SDS011;25155;41.890;23.446;2023-04-25T06:55:01;9.00;;;6.78;;
39454;SDS011;25155;41.890;23.446;2023-04-25T06:57:30;11.48;;;9.45;;
39454;SDS011;25155;41.890;23.446;2023-04-25T06:59:57;12.20;;;9.07;;
39454;SDS011;25155;41.890;23.446;2023-04-25T07:02:24;10.75;;;8.45;;
39454;SDS011;25155;41.890;23.446;2023-04-25T07:04:51;11.10;;;8.32;;
39454;SDS011;25155;41.890;23.446;2023-04-25T07:07:19;9.15;;;6.82;;
39454;SDS011;25155;41.890;23.446;2023-04-25T07:09:47;11.20;;;9.05;;
39454;SDS011;25155;41.890;23.446;2023-04-25T07:12:14;9.93;;;8.57;;
39454;SDS011;25155;41.890;23.446;2023-04-25T07:14:41;10.00;;;7.82;;
39454;SDS011;25155;41.890;23.446;2023-04-25T07:17:08;8.50;;;6.63;;
39454;SDS011;25155;41.890;23.446;2023-04-25T07:19:35;8.90;;;5.82;;
39454;SDS011;25155;41.890;23.446;2023-04-25T07:22:03;7.95;;;5.45;;
39454;SDS011;25155;41.890;23.446;2023-04-25T07:24:32;6.45;;;4.50;;
39454;SDS011;25155;41.890;23.446;2023-04-25T07:26:59;6.57;;;4.75;;
39454;SDS011;25155;41.890;23.446;2023-04-25T07:29:26;6.82;;;5.15;;
39454;SDS011;25155;41.890;23.446;2023-04-25T07:31:53;8.90;;;5.90;;
39454;SDS011;25155;41.890;23.446;2023-04-25T07:34:20;7.07;;;4.93;;
39454;SDS011;25155;41.890;23.446;2023-04-25T07:36:47;7.10;;;4.80;;
39454;SDS011;25155;41.890;23.446;2023-04-25T07:39:14;7.82;;;4.75;;
39454;SDS011;25155;41.890;23.446;2023-04-25T07:41:43;6.50;;;4.90;;
39454;SDS011;25155;41.890;23.446;2023-04-25T07:44:10;5.93;;;4.28;;
39454;SDS011;25155;41.890;23.446;2023-04-25T07:46:37;8.43;;;5.05;;
39454;SDS011;25155;41.890;23.446;2023-04-25T07:49:04;7.57;;;4.93;;
39454;SDS011;25155;41.890;23.446;2023-04-25T07:51:31;6.75;;;4.65;;
39454;SDS011;25155;41.890;23.446;2023-04-25T07:53:58;6.25;;;4.57;;
39454;SDS011;25155;41.890;23.446;2023-04-25T07:56:25;5.68;;;4.35;;
39454;SDS011;25155;41.890;23.446;2023-04-25T07:58:54;5.90;;;4.32;;
39454;SDS011;25155;41.890;23.446;2023-04-25T08:01:21;5.63;;;4.07;;
39454;SDS011;25155;41.890;23.446;2023-04-25T08:03:48;6.65;;;4.07;;
39454;SDS011;25155;41.890;23.446;2023-04-25T08:06:15;6.82;;;3.97;;
39454;SDS011;25155;41.890;23.446;2023-04-25T08:08:42;6.15;;;4.47;;
39454;SDS011;25155;41.890;23.446;2023-04-25T08:11:10;5.72;;;3.85;;
39454;SDS011;25155;41.890;23.446;2023-04-25T08:13:37;4.85;;;3.00;;
39454;SDS011;25155;41.890;23.446;2023-04-25T08:16:05;4.50;;;2.80;;
39454;SDS011;25155;41.890;23.446;2023-04-25T08:18:33;2.65;;;1.85;;
39454;SDS011;25155;41.890;23.446;2023-04-25T08:21:00;2.47;;;1.65;;
39454;SDS011;25155;41.890;23.446;2023-04-25T08:23:27;4.85;;;2.20;;
39454;SDS011;25155;41.890;23.446;2023-04-25T08:25:54;3.83;;;2.30;;
39454;SDS011;25155;41.890;23.446;2023-04-25T08:28:21;3.33;;;1.67;;
39454;SDS011;25155;41.890;23.446;2023-04-25T08:30:48;2.45;;;1.60;;
39454;SDS011;25155;41.890;23.446;2023-04-25T08:33:16;2.45;;;1.85;;
39454;SDS011;25155;41.890;23.446;2023-04-25T08:35:44;3.05;;;2.00;;
39454;SDS011;25155;41.890;23.446;2023-04-25T08:38:11;3.00;;;2.00;;
39454;SDS011;25155;41.890;23.446;2023-04-25T08:40:38;4.13;;;2.55;;
39454;SDS011;25155;41.890;23.446;2023-04-25T08:43:06;3.72;;;2.40;;
39454;SDS011;25155;41.890;23.446;2023-04-25T08:45:36;4.00;;;2.28;;
39454;SDS011;25155;41.890;23.446;2023-04-25T08:48:07;3.50;;;1.90;;
39454;SDS011;25155;41.890;23.446;2023-04-25T08:50:39;2.10;;;1.60;;
39454;SDS011;25155;41.890;23.446;2023-04-25T08:53:10;1.60;;;1.50;;
39454;SDS011;25155;41.890;23.446;2023-04-25T08:55:43;2.15;;;1.35;;
39454;SDS011;25155;41.890;23.446;2023-04-25T08:58:12;1.77;;;1.33;;
39454;SDS011;25155;41.890;23.446;2023-04-25T09:00:40;1.40;;;1.30;;
39454;SDS011;25155;41.890;23.446;2023-04-25T09:03:07;1.40;;;1.30;;
39454;SDS011;25155;41.890;23.446;2023-04-25T09:05:34;1.63;;;1.50;;
39454;SDS011;25155;41.890;23.446;2023-04-25T09:08:04;3.25;;;1.70;;
39454;SDS011;25155;41.890;23.446;2023-04-25T09:10:32;1.45;;;1.10;;
39454;SDS011;25155;41.890;23.446;2023-04-25T09:13:03;2.20;;;1.30;;
39454;SDS011;25155;41.890;23.446;2023-04-25T09:15:31;1.10;;;1.10;;
39454;SDS011;25155;41.890;23.446;2023-04-25T09:17:59;1.85;;;1.40;;
39454;SDS011;25155;41.890;23.446;2023-04-25T09:20:26;2.90;;;1.40;;
39454;SDS011;25155;41.890;23.446;2023-04-25T09:23:01;1.23;;;1.10;;
39454;SDS011;25155;41.890;23.446;2023-04-25T09:25:33;1.27;;;1.10;;
39454;SDS011;25155;41.890;23.446;2023-04-25T09:28:03;2.97;;;1.10;;
39454;SDS011;25155;41.890;23.446;2023-04-25T09:30:32;1.50;;;1.30;;
39454;SDS011;25155;41.890;23.446;2023-04-25T09:33:03;1.30;;;1.20;;
39454;SDS011;25155;41.890;23.446;2023-04-25T09:35:34;1.55;;;1.05;;
39454;SDS011;25155;41.890;23.446;2023-04-25T09:38:07;2.85;;;1.30;;
39454;SDS011;25155;41.890;23.446;2023-04-25T09:40:40;1.60;;;1.20;;
39454;SDS011;25155;41.890;23.446;2023-04-25T09:43:10;1.20;;;1.08;;
39454;SDS011;25155;41.890;23.446;2023-04-25T09:45:46;2.40;;;1.45;;
39454;SDS011;25155;41.890;23.446;2023-04-25T09:48:17;1.50;;;1.40;;
39454;SDS011;25155;41.890;23.446;2023-04-25T09:50:45;2.50;;;1.35;;
39454;SDS011;25155;41.890;23.446;2023-04-25T09:53:17;1.27;;;1.10;;
39454;SDS011;25155;41.890;23.446;2023-04-25T09:55:45;1.73;;;1.17;;
39454;SDS011;25155;41.890;23.446;2023-04-25T09:58:12;1.30;;;1.20;;
39454;SDS011;25155;41.890;23.446;2023-04-25T10:00:41;1.83;;;1.25;;
39454;SDS011;25155;41.890;23.446;2023-04-25T10:03:08;2.17;;;1.38;;
39454;SDS011;25155;41.890;23.446;2023-04-25T10:05:37;1.33;;;1.02;;
39454;SDS011;25155;41.890;23.446;2023-04-25T10:08:04;2.65;;;1.42;;
39454;SDS011;25155;41.890;23.446;2023-04-25T10:10:33;1.30;;;1.20;;
39454;SDS011;25155;41.890;23.446;2023-04-25T10:13:05;1.63;;;1.30;;
39454;SDS011;25155;41.890;23.446;2023-04-25T10:15:34;2.35;;;1.40;;
39454;SDS011;25155;41.890;23.446;2023-04-25T10:18:02;1.42;;;1.30;;
39454;SDS011;25155;41.890;23.446;2023-04-25T10:20:30;1.38;;;1.25;;
39454;SDS011;25155;41.890;23.446;2023-04-25T10:22:58;1.50;;;1.27;;
39454;SDS011;25155;41.890;23.446;2023-04-25T10:25:33;1.25;;;1.10;;
39454;SDS011;25155;41.890;23.446;2023-04-25T10:28:02;1.85;;;1.42;;
39454;SDS011;25155;41.890;23.446;2023-04-25T10:30:32;2.80;;;1.40;;
39454;SDS011;25155;41.890;23.446;2023-04-25T10:32:59;2.10;;;1.60;;
39454;SDS011;25155;41.890;23.446;2023-04-25T10:35:27;1.80;;;1.38;;
39454;SDS011;25155;41.890;23.446;2023-04-25T10:37:59;1.30;;;1.20;;
39454;SDS011;25155;41.890;23.446;2023-04-25T10:40:29;1.60;;;1.40;;
39454;SDS011;25155;41.890;23.446;2023-04-25T10:43:32;1.40;;;1.30;;
39454;SDS011;25155;41.890;23.446;2023-04-25T10:46:00;1.48;;;1.33;;
39454;SDS011;25155;41.890;23.446;2023-04-25T10:48:28;1.48;;;1.25;;
39454;SDS011;25155;41.890;23.446;2023-04-25T10:51:08;1.30;;;1.20;;
39454;SDS011;25155;41.890;23.446;2023-04-25T10:53:36;2.70;;;1.27;;
39454;SDS011;25155;41.890;23.446;2023-04-25T10:56:09;2.15;;;1.40;;
39454;SDS011;25155;41.890;23.446;2023-04-25T10:58:41;1.75;;;1.30;;
39454;SDS011;25155;41.890;23.446;2023-04-25T11:01:11;1.75;;;1.33;;
39454;SDS011;25155;41.890;23.446;2023-04-25T11:03:42;1.42;;;1.27;;
39454;SDS011;25155;41.890;23.446;2023-04-25T11:06:16;1.85;;;1.20;;
39454;SDS011;25155;41.890;23.446;2023-04-25T11:08:49;2.08;;;1.10;;
39454;SDS011;25155;41.890;23.446;2023-04-25T11:11:17;2.08;;;1.40;;
39454;SDS011;25155;41.890;23.446;2023-04-25T11:13:47;2.63;;;1.48;;
39454;SDS011;25155;41.890;23.446;2023-04-25T11:16:16;4.35;;;1.70;;
39454;SDS011;25155;41.890;23.446;2023-04-25T11:18:44;1.65;;;1.30;;
39454;SDS011;25155;41.890;23.446;2023-04-25T11:21:11;2.50;;;1.60;;
39454;SDS011;25155;41.890;23.446;2023-04-25T11:23:38;4.82;;;1.60;;
39454;SDS011;25155;41.890;23.446;2023-04-25T11:26:05;3.47;;;1.50;;
39454;SDS011;25155;41.890;23.446;2023-04-25T11:28:32;2.72;;;1.60;;
39454;SDS011;25155;41.890;23.446;2023-04-25T11:30:59;1.92;;;1.20;;
39454;SDS011;25155;41.890;23.446;2023-04-25T11:33:28;4.90;;;1.60;;
39454;SDS011;25155;41.890;23.446;2023-04-25T11:35:55;1.75;;;1.48;;
39454;SDS011;25155;41.890;23.446;2023-04-25T11:38:22;1.58;;;1.40;;
39454;SDS011;25155;41.890;23.446;2023-04-25T11:40:51;2.15;;;1.60;;
39454;SDS011;25155;41.890;23.446;2023-04-25T11:43:20;2.58;;;1.50;;
39454;SDS011;25155;41.890;23.446;2023-04-25T11:45:48;2.75;;;1.48;;
39454;SDS011;25155;41.890;23.446;2023-04-25T11:48:40;3.70;;;1.48;;
39454;SDS011;25155;41.890;23.446;2023-04-25T11:51:08;2.03;;;1.58;;
39454;SDS011;25155;41.890;23.446;2023-04-25T11:53:35;3.40;;;1.60;;
39454;SDS011;25155;41.890;23.446;2023-04-25T11:56:02;2.25;;;1.40;;
39454;SDS011;25155;41.890;23.446;2023-04-25T12:01:28;1.40;;;1.30;;
39454;SDS011;25155;41.890;23.446;2023-04-25T12:03:58;1.40;;;1.30;;
39454;SDS011;25155;41.890;23.446;2023-04-25T12:06:36;1.60;;;1.40;;
39454;SDS011;25155;41.890;23.446;2023-04-25T12:09:07;2.22;;;1.42;;
39454;SDS011;25155;41.890;23.446;2023-04-25T12:11:40;1.30;;;1.20;;
39454;SDS011;25155;41.890;23.446;2023-04-25T12:14:08;2.05;;;1.45;;
39454;SDS011;25155;41.890;23.446;2023-04-25T12:16:42;3.20;;;1.58;;
39454;SDS011;25155;41.890;23.446;2023-04-25T12:19:13;2.03;;;1.50;;
39454;SDS011;25155;41.890;23.446;2023-04-25T12:21:40;2.42;;;1.40;;
39454;SDS011;25155;41.890;23.446;2023-04-25T12:24:11;1.83;;;1.45;;
39454;SDS011;25155;41.890;23.446;2023-04-25T12:26:46;1.23;;;1.10;;
39454;SDS011;25155;41.890;23.446;2023-04-25T12:29:17;2.20;;;1.40;;
39454;SDS011;25155;41.890;23.446;2023-04-25T12:31:46;1.40;;;1.30;;
39454;SDS011;25155;41.890;23.446;2023-04-25T12:34:14;1.85;;;1.33;;
39454;SDS011;25155;41.890;23.446;2023-04-25T12:36:41;2.05;;;1.42;;
39454;SDS011;25155;41.890;23.446;2023-04-25T12:39:09;2.38;;;1.50;;
39454;SDS011;25155;41.890;23.446;2023-04-25T12:41:41;3.15;;;1.55;;
39454;SDS011;25155;41.890;23.446;2023-04-25T12:44:08;2.67;;;1.70;;
39454;SDS011;25155;41.890;23.446;2023-04-25T12:46:35;2.08;;;1.40;;
39454;SDS011;25155;41.890;23.446;2023-04-25T12:49:02;1.92;;;1.30;;
39454;SDS011;25155;41.890;23.446;2023-04-25T12:51:33;3.17;;;1.40;;
39454;SDS011;25155;41.890;23.446;2023-04-25T12:54:00;1.85;;;1.45;;
39454;SDS011;25155;41.890;23.446;2023-04-25T12:56:27;2.30;;;1.42;;
39454;SDS011;25155;41.890;23.446;2023-04-25T12:58:55;2.30;;;1.45;;
39454;SDS011;25155;41.890;23.446;2023-04-25T13:01:22;4.00;;;1.50;;
39454;SDS011;25155;41.890;23.446;2023-04-25T13:03:50;1.85;;;1.55;;
39454;SDS011;25155;41.890;23.446;2023-04-25T13:06:17;2.92;;;1.50;;
39454;SDS011;25155;41.890;23.446;2023-04-25T13:08:47;1.65;;;1.40;;
39454;SDS011;25155;41.890;23.446;2023-04-25T13:11:14;1.52;;;1.20;;
39454;SDS011;25155;41.890;23.446;2023-04-25T13:13:41;2.45;;;1.52;;
39454;SDS011;25155;41.890;23.446;2023-04-25T13:16:09;2.58;;;1.70;;
39454;SDS011;25155;41.890;23.446;2023-04-25T13:18:39;1.80;;;1.33;;
39454;SDS011;25155;41.890;23.446;2023-04-25T13:21:06;2.72;;;1.50;;
39454;SDS011;25155;41.890;23.446;2023-04-25T13:23:33;2.58;;;1.60;;
39454;SDS011;25155;41.890;23.446;2023-04-25T13:26:02;1.40;;;1.27;;
39454;SDS011;25155;41.890;23.446;2023-04-25T13:28:29;1.58;;;1.27;;
39454;SDS011;25155;41.890;23.446;2023-04-25T13:30:56;2.35;;;1.40;;
39454;SDS011;25155;41.890;23.446;2023-04-25T13:33:23;2.40;;;1.60;;
39454;SDS011;25155;41.890;23.446;2023-04-25T13:35:51;3.67;;;1.70;;
39454;SDS011;25155;41.890;23.446;2023-04-25T13:38:21;2.33;;;1.20;;
39454;SDS011;25155;41.890;23.446;2023-04-25T13:40:49;3.45;;;1.60;;
39454;SDS011;25155;41.890;23.446;2023-04-25T13:43:19;3.90;;;1.83;;
39454;SDS011;25155;41.890;23.446;2023-04-25T13:45:47;2.33;;;1.77;;
39454;SDS011;25155;41.890;23.446;2023-04-25T13:48:14;3.13;;;1.70;;
39454;SDS011;25155;41.890;23.446;2023-04-25T13:50:41;2.30;;;1.50;;
39454;SDS011;25155;41.890;23.446;2023-04-25T13:53:08;1.58;;;1.42;;
39454;SDS011;25155;41.890;23.446;2023-04-25T13:55:35;3.90;;;1.67;;
39454;SDS011;25155;41.890;23.446;2023-04-25T13:58:04;1.83;;;1.40;;
39454;SDS011;25155;41.890;23.446;2023-04-25T14:00:35;2.67;;;1.60;;
39454;SDS011;25155;41.890;23.446;2023-04-25T14:03:05;2.47;;;1.50;;
39454;SDS011;25155;41.890;23.446;2023-04-25T14:05:33;2.50;;;1.63;;
39454;SDS011;25155;41.890;23.446;2023-04-25T14:08:05;2.00;;;1.55;;
39454;SDS011;25155;41.890;23.446;2023-04-25T14:10:32;3.42;;;1.60;;
39454;SDS011;25155;41.890;23.446;2023-04-25T14:13:00;2.72;;;1.50;;
39454;SDS011;25155;41.890;23.446;2023-04-25T14:15:28;1.92;;;1.60;;
39454;SDS011;25155;41.890;23.446;2023-04-25T14:18:00;2.38;;;1.67;;
39454;SDS011;25155;41.890;23.446;2023-04-25T14:20:27;2.30;;;1.48;;
39454;SDS011;25155;41.890;23.446;2023-04-25T14:22:55;3.35;;;1.60;;
39454;SDS011;25155;41.890;23.446;2023-04-25T14:25:23;3.10;;;1.70;;
39454;SDS011;25155;41.890;23.446;2023-04-25T14:27:50;2.15;;;1.63;;
39454;SDS011;25155;41.890;23.446;2023-04-25T14:30:18;5.10;;;1.90;;
39454;SDS011;25155;41.890;23.446;2023-04-25T14:32:46;2.30;;;1.60;;
39454;SDS011;25155;41.890;23.446;2023-04-25T14:35:16;2.70;;;2.30;;
39454;SDS011;25155;41.890;23.446;2023-04-25T14:37:44;3.08;;;1.38;;
39454;SDS011;25155;41.890;23.446;2023-04-25T14:40:11;2.58;;;1.60;;
39454;SDS011;25155;41.890;23.446;2023-04-25T14:42:40;1.73;;;1.45;;